NATURA VA

 INFORMACIÓN METAR y TAF
METAR FOR LERS
ADDS - METARS form results

(2251 UTC 17 June 2019)
Data provider http://aviationweather.gov/metar/data/
 
METAR text: LERS 172230Z AUTO 00000KT 9999 NCD 17/17 Q1017
Conditions at: LERS (REUS (CIV/MIL) , ES) observed 2230 UTC 17 June 2019
Temperature: 17.0°C (63°F)
Dewpoint: 17.0°C (63°F) [RH = 100%]
Pressure (altimeter): 30.03 inches Hg (1017.0 mb)
Winds: calm
Visibility: 6 or more miles (10+ km)
Ceiling: at least 12,000 feet AGL
Clouds: sky clear below 12,000 feet AGL
Weather: no significant weather observed at this time

METAR text: LERS 172200Z 00000KT 9999 FEW012 18/17 Q1016
Conditions at: LERS (REUS (CIV/MIL) , ES) observed 2200 UTC 17 June 2019
Temperature: 18.0°C (64°F)
Dewpoint: 17.0°C (63°F) [RH = 94%]
Pressure (altimeter): 30.00 inches Hg (1016.0 mb)
Winds: calm
Visibility: 6 or more miles (10+ km)
Ceiling: at least 12,000 feet AGL
Clouds: few clouds at 1200 feet AGL
Weather: no significant weather observed at this time

Forecast for: LERS (REUS (CIV/MIL) , ES)
Text: TAF LERS 172000Z 1721/1821 VRB03KT 9999 FEW030 TX26/1812Z TN16/1805Z
Forecast period: 2100 UTC 17 June 2019 to 0800 UTC 18 June 2019
Forecast type: FROM: standard forecast or significant change
Winds: variable direction winds at 3 MPH (3 knots; 1.5 m/s)
Visibility: 6 or more miles 10+ km)
Ceiling: at least 12,000 feet AGL
Clouds: few clouds at 3000 feet AGL
Weather: no significant weather forecast for this period
Text: BECMG 1808/1810 18008KT
Forecast period: 0800 to 2100 UTC 18 June 2019
Forecast type: BECOMING: Conditions expected to become as follows by 1000 UTC 18 June 2019
Winds: from the S (180 degrees) at 9 MPH (8 knots; 4.1 m/s)
Visibility: 6 or more miles 10+ km)
Ceiling: at least 12,000 feet AGL
Clouds: few clouds at 3000 feet AGL
Weather: no significant weather forecast for this period

 MAPA DE AEROPUERTO

 INFORMACIÓN DE PISTA
Pista 07 Longitud 8054 ft Ancho 148 ft
Elevación 231 ft Umbral desplazado 853 ft Rumbo de pista 69
Pista 25 Longitud 8054 ft Ancho 148 ft
Elevación 234 ft Umbral desplazado 0 ft Rumbo de pista 249
Pista 12 Longitud 3117 ft Ancho 115 ft
Elevación 226 ft Umbral desplazado 0 ft Rumbo de pista 111
Pista 30 Longitud 3117 ft Ancho 115 ft
Elevación 198 ft Umbral desplazado 0 ft Rumbo de pista 291

 FRECUANCIAS DEL AEROPUERTO
Tipo APP Nombre APP Frecuencia 118.15 MHZ
Tipo GND Nombre GND Frecuencia 121.7 MHZ
Tipo TWR Nombre TWR Frecuencia 118.15 MHZ

 RADIO AYUDAS DEL AEROPUERTO
Tipo VOR-DME Nombre Reus Frecuencia 114200 KHZ
Tipo NDB Nombre Reus Frecuencia 424 KHZ



Powered by Virtual Airlines Manager [v2.6.2]